Time;durP1;ratioP1;P1;durP2;ratioP2;P2;SDS_P1;SDS_P2;PMS_P1;PMS_P2;Temp;Humidity;BMP_temperature;BMP_pressure;BME280_temperature;BME280_humidity;BME280_pressure;Samples;Min_cycle;Max_cycle;Signal;HPM_P1;HPM_P2
2022/03/09 00:02:36;;;;;;;3.88;2.33;;;17.60;52.90;;;;;;10456070;28;20527;-58
2022/03/09 00:07:37;;;;;;;4.07;2.30;;;17.70;52.70;;;;;;10437880;28;20033;-58
2022/03/09 00:12:38;;;;;;;4.68;2.40;;;17.70;52.80;;;;;;10453500;28;20048;-59
2022/03/09 00:17:38;;;;;;;5.32;2.83;;;17.70;53.40;;;;;;10437489;28;20032;-58
2022/03/09 00:22:39;;;;;;;2.50;1.95;;;17.70;52.70;;;;;;10455144;28;20029;-58
2022/03/09 00:27:40;;;;;;;4.53;2.55;;;17.70;52.60;;;;;;10440802;28;20025;-58
2022/03/09 00:32:41;;;;;;;3.95;2.97;;;17.70;52.50;;;;;;10454605;28;20068;-59
2022/03/09 00:37:41;;;;;;;3.53;1.90;;;17.80;52.50;;;;;;10443020;28;20090;-58
2022/03/09 00:42:43;;;;;;;3.20;2.20;;;17.70;52.40;;;;;;10444200;28;20049;-58
2022/03/09 00:47:44;;;;;;;3.83;2.53;;;17.70;52.40;;;;;;10454475;28;20041;-60
2022/03/09 00:52:47;;;;;;;2.55;2.13;;;17.70;52.50;;;;;;10445712;28;20111;-58
2022/03/09 00:57:47;;;;;;;3.10;1.95;;;17.70;52.40;;;;;;10460746;28;20029;-58
2022/03/09 01:02:48;;;;;;;2.97;1.95;;;17.70;52.50;;;;;;10437184;28;20025;-59
2022/03/09 01:07:49;;;;;;;3.72;2.28;;;17.70;52.20;;;;;;10452741;28;20525;-59
2022/03/09 01:12:50;;;;;;;3.33;2.20;;;17.60;52.30;;;;;;10450759;28;20113;-59
2022/03/09 01:17:50;;;;;;;2.97;1.95;;;17.70;52.30;;;;;;10452649;28;20041;-58
2022/03/09 01:22:52;;;;;;;3.03;2.03;;;17.70;52.30;;;;;;10455431;28;20107;-59
2022/03/09 01:27:53;;;;;;;2.65;1.90;;;17.60;52.20;;;;;;10462269;28;20025;-58
2022/03/09 01:32:54;;;;;;;3.63;2.13;;;17.60;52.20;;;;;;10460393;28;20049;-58
2022/03/09 01:37:55;;;;;;;3.22;1.67;;;17.60;52.10;;;;;;10450853;28;20110;-58
2022/03/09 01:42:56;;;;;;;3.92;2.30;;;17.70;52.10;;;;;;10452062;28;20036;-59
2022/03/09 01:47:57;;;;;;;3.15;1.95;;;17.60;52.20;;;;;;10452789;28;20456;-58
2022/03/09 01:52:59;;;;;;;3.30;2.22;;;17.60;52.00;;;;;;10459889;28;20025;-59
2022/03/09 01:58:00;;;;;;;2.83;1.95;;;17.60;52.00;;;;;;10467714;28;20024;-59
2022/03/09 02:03:01;;;;;;;2.60;1.95;;;17.60;52.00;;;;;;10450236;28;20120;-58
2022/03/09 02:13:21;;;;;;;2.70;2.05;;;17.60;51.90;;;;;;10457871;28;20029;-59
2022/03/09 02:18:22;;;;;;;2.70;2.10;;;17.60;51.80;;;;;;10442302;28;20710;-58
2022/03/09 02:23:24;;;;;;;2.33;1.85;;;17.70;51.80;;;;;;10459998;28;20037;-58
2022/03/09 02:28:24;;;;;;;2.85;1.90;;;17.70;51.70;;;;;;10451692;28;20025;-58
2022/03/09 02:33:25;;;;;;;4.47;2.10;;;17.60;51.70;;;;;;10448162;28;20047;-59
2022/03/09 02:38:26;;;;;;;2.55;1.98;;;17.60;51.70;;;;;;10452829;28;20061;-59
2022/03/09 02:43:27;;;;;;;3.03;2.08;;;17.60;51.70;;;;;;10458934;28;20481;-59
2022/03/09 02:48:27;;;;;;;3.55;2.28;;;17.60;51.60;;;;;;10458502;28;20095;-58
2022/03/09 02:53:28;;;;;;;3.50;2.13;;;17.60;51.60;;;;;;10457163;28;20134;-59
2022/03/09 02:58:29;;;;;;;2.60;1.70;;;17.70;52.20;;;;;;10465426;28;20060;-59
2022/03/09 03:03:29;;;;;;;2.70;1.75;;;17.70;51.30;;;;;;10453864;28;20449;-58
2022/03/09 03:08:30;;;;;;;3.38;2.35;;;17.70;51.20;;;;;;10444465;28;20132;-58
2022/03/09 03:13:31;;;;;;;3.28;2.08;;;17.70;51.10;;;;;;10445557;28;20044;-59
2022/03/09 03:18:32;;;;;;;3.78;2.03;;;17.70;50.90;;;;;;10439541;28;20059;-59
2022/03/09 03:23:34;;;;;;;2.65;1.73;;;17.80;50.90;;;;;;10456501;28;20033;-59
2022/03/09 03:28:35;;;;;;;2.95;1.98;;;17.80;50.80;;;;;;10456315;28;20021;-58
2022/03/09 03:33:36;;;;;;;3.42;2.33;;;17.70;50.80;;;;;;10450982;28;20041;-59
2022/03/09 03:38:37;;;;;;;2.50;1.77;;;17.70;50.90;;;;;;10452476;28;20343;-59
2022/03/09 03:43:37;;;;;;;3.03;2.00;;;17.70;50.80;;;;;;10453577;28;20124;-59
2022/03/09 03:48:38;;;;;;;3.35;2.20;;;17.70;50.80;;;;;;10438801;28;20029;-58
2022/03/09 03:53:39;;;;;;;3.13;1.80;;;17.80;50.50;;;;;;10456248;28;20112;-58
2022/03/09 03:58:39;;;;;;;3.08;1.92;;;17.80;50.40;;;;;;10449772;28;20549;-59
2022/03/09 04:03:40;;;;;;;2.50;1.80;;;17.80;50.40;;;;;;10455771;28;20112;-58
2022/03/09 04:08:41;;;;;;;2.33;1.65;;;17.80;50.20;;;;;;10444459;28;20036;-60
2022/03/09 04:13:42;;;;;;;3.30;1.67;;;17.80;50.30;;;;;;10455795;28;20068;-58
2022/03/09 04:18:43;;;;;;;3.47;2.28;;;17.80;50.10;;;;;;10455360;28;20021;-59
2022/03/09 04:23:43;;;;;;;2.38;1.77;;;17.80;50.20;;;;;;10448780;28;20376;-58
2022/03/09 04:28:44;;;;;;;2.55;1.83;;;17.90;50.10;;;;;;10454003;28;20041;-58
2022/03/09 04:33:46;;;;;;;3.25;1.77;;;17.80;50.00;;;;;;10450335;28;20495;-60
2022/03/09 04:38:47;;;;;;;2.38;1.67;;;17.80;50.00;;;;;;10453821;28;20584;-59
2022/03/09 04:43:47;;;;;;;3.45;2.10;;;17.70;50.10;;;;;;10453090;28;20134;-59
2022/03/09 04:48:51;;;;;;;2.50;1.77;;;17.70;50.10;;;;;;10441015;28;20040;-59
2022/03/09 04:53:52;;;;;;;2.47;1.85;;;17.70;50.20;;;;;;10454244;28;20059;-58
2022/03/09 04:58:53;;;;;;;2.67;1.50;;;17.80;50.00;;;;;;10461045;28;20063;-58
2022/03/09 05:03:53;;;;;;;2.33;1.67;;;17.80;49.90;;;;;;10443671;28;20167;-59
2022/03/09 05:08:54;;;;;;;2.47;1.90;;;17.90;49.70;;;;;;10448911;28;20078;-58
2022/03/09 05:13:55;;;;;;;3.17;1.90;;;17.90;49.80;;;;;;10446103;28;20063;-58
2022/03/09 05:18:55;;;;;;;3.17;2.17;;;17.90;49.60;;;;;;10453954;28;20033;-58
2022/03/09 05:23:56;;;;;;;1.98;1.42;;;17.90;49.60;;;;;;10436030;28;20388;-59
2022/03/09 05:28:57;;;;;;;2.30;1.70;;;17.80;49.80;;;;;;10449980;28;20044;-60
2022/03/09 05:33:58;;;;;;;3.15;2.10;;;17.80;49.80;;;;;;10453191;28;20045;-58
2022/03/09 05:38:58;;;;;;;1.83;1.40;;;17.80;49.70;;;;;;10434823;28;20062;-59
2022/03/09 05:43:59;;;;;;;2.50;1.75;;;17.90;49.50;;;;;;10451389;28;20104;-58
2022/03/09 05:49:01;;;;;;;2.53;1.60;;;17.90;49.40;;;;;;10449654;28;20457;-58
2022/03/09 05:54:02;;;;;;;4.15;1.65;;;18.00;49.40;;;;;;10450517;28;20033;-59
2022/03/09 05:59:03;;;;;;;4.80;2.42;;;17.90;49.90;;;;;;10435186;28;20029;-59
2022/03/09 06:04:05;;;;;;;7.47;2.13;;;17.90;49.90;;;;;;10448888;28;20033;-57
2022/03/09 06:09:05;;;;;;;10.90;2.58;;;18.00;50.80;;;;;;10463569;28;20389;-58
2022/03/09 06:14:06;;;;;;;5.80;2.60;;;17.90;52.60;;;;;;10459145;28;20044;-58
2022/03/09 06:19:07;;;;;;;10.75;2.97;;;17.80;51.70;;;;;;10460453;28;20078;-58
2022/03/09 06:24:09;;;;;;;7.40;3.00;;;18.00;51.20;;;;;;10459726;28;20036;-58
2022/03/09 06:29:10;;;;;;;11.00;2.92;;;18.00;52.00;;;;;;10457984;28;20036;-58
2022/03/09 06:34:12;;;;;;;10.48;2.25;;;17.90;52.70;;;;;;10459135;28;20094;-59
2022/03/09 06:39:15;;;;;;;6.97;2.45;;;17.90;53.00;;;;;;10457983;28;20040;-59
2022/03/09 06:44:17;;;;;;;10.20;2.75;;;17.90;52.60;;;;;;10458708;28;20029;-59
2022/03/09 06:49:17;;;;;;;10.23;3.03;;;18.00;53.10;;;;;;10463255;28;20465;-61
2022/03/09 06:54:18;;;;;;;12.07;3.38;;;17.80;53.10;;;;;;10456227;28;20029;-60
2022/03/09 06:59:19;;;;;;;12.05;3.58;;;17.80;53.10;;;;;;10458254;28;20051;-60
2022/03/09 07:04:20;;;;;;;9.00;3.47;;;17.70;52.80;;;;;;10447881;28;20029;-58
2022/03/09 07:09:21;;;;;;;16.40;3.90;;;17.80;52.40;;;;;;10457019;28;20541;-58
2022/03/09 07:14:21;;;;;;;21.27;3.60;;;17.80;52.70;;;;;;10452606;28;20120;-60
2022/03/09 07:19:22;;;;;;;14.15;3.80;;;17.70;53.10;;;;;;10457144;28;20036;-58
2022/03/09 07:24:23;;;;;;;12.80;3.55;;;17.70;52.40;;;;;;10456967;28;20108;-58
2022/03/09 07:29:23;;;;;;;14.23;3.40;;;17.80;52.10;;;;;;10439026;28;20793;-59
2022/03/09 07:34:26;;;;;;;9.82;2.90;;;17.70;51.90;;;;;;10455646;28;20717;-58
2022/03/09 07:39:28;;;;;;;13.55;3.30;;;17.70;52.00;;;;;;10454357;28;20021;-58
2022/03/09 07:44:29;;;;;;;8.85;3.97;;;17.60;52.00;;;;;;10446359;28;20039;-59
2022/03/09 07:49:33;;;;;;;7.50;2.92;;;17.70;51.80;;;;;;10455350;28;20060;-59
2022/03/09 07:54:34;;;;;;;12.15;3.22;;;17.70;52.00;;;;;;10455210;28;20106;-58
2022/03/09 07:59:34;;;;;;;11.93;4.05;;;17.70;52.00;;;;;;10455947;28;20036;-59
2022/03/09 08:04:35;;;;;;;11.52;3.35;;;17.70;52.00;;;;;;10451387;28;20027;-60
2022/03/09 08:09:36;;;;;;;14.35;3.42;;;17.70;52.30;;;;;;10454880;28;20036;-59
2022/03/09 08:14:37;;;;;;;12.48;3.47;;;17.60;52.50;;;;;;10453428;28;20067;-58
2022/03/09 08:19:37;;;;;;;7.10;2.47;;;17.70;52.40;;;;;;10454193;28;20389;-59
2022/03/09 08:24:38;;;;;;;23.80;3.78;;;17.60;52.70;;;;;;10455423;28;20112;-58
2022/03/09 08:29:39;;;;;;;10.10;2.60;;;17.50;52.50;;;;;;10450196;28;20032;-58
2022/03/09 08:34:40;;;;;;;8.82;2.80;;;17.40;53.10;;;;;;10450207;28;20077;-58
2022/03/09 08:39:43;;;;;;;12.38;3.88;;;17.40;53.20;;;;;;10450623;28;20064;-59
2022/03/09 08:44:43;;;;;;;13.10;3.17;;;17.40;53.60;;;;;;10441524;28;20056;-59
2022/03/09 08:49:44;;;;;;;17.92;3.33;;;17.30;53.60;;;;;;10452972;28;20029;-58
2022/03/09 08:54:45;;;;;;;10.18;3.17;;;17.30;54.30;;;;;;10451929;28;20151;-59
2022/03/09 08:59:46;;;;;;;6.70;2.40;;;17.20;53.70;;;;;;10458361;28;20068;-58
2022/03/09 09:04:47;;;;;;;6.32;3.08;;;17.20;53.60;;;;;;10448892;28;20025;-59
2022/03/09 09:09:47;;;;;;;5.65;3.20;;;17.20;53.60;;;;;;10435548;28;20049;-58
2022/03/09 09:14:48;;;;;;;12.95;2.97;;;17.20;53.60;;;;;;10440049;28;20029;-59
2022/03/09 09:19:49;;;;;;;6.60;2.83;;;17.20;53.60;;;;;;10452675;28;20104;-58
2022/03/09 09:24:50;;;;;;;5.88;2.38;;;17.20;54.20;;;;;;10453951;28;20482;-58
2022/03/09 09:29:51;;;;;;;11.10;3.22;;;17.20;53.50;;;;;;10469033;28;20070;-58
2022/03/09 09:34:51;;;;;;;4.88;2.35;;;17.20;53.50;;;;;;10451997;28;20073;-58
2022/03/09 09:39:53;;;;;;;7.05;2.42;;;17.20;53.50;;;;;;10451966;28;20056;-58
2022/03/09 09:44:55;;;;;;;4.95;2.22;;;17.20;53.40;;;;;;10457773;28;20063;-57
2022/03/09 09:49:56;;;;;;;4.57;2.47;;;17.20;53.30;;;;;;10455604;28;20535;-58
2022/03/09 09:54:59;;;;;;;3.72;1.65;;;17.20;53.20;;;;;;10459147;28;20037;-58
2022/03/09 10:00:01;;;;;;;3.97;1.85;;;17.30;53.30;;;;;;10446691;28;20667;-58
2022/03/09 10:05:02;;;;;;;3.25;1.92;;;17.30;53.40;;;;;;10442323;28;20482;-58
2022/03/09 10:10:15;;;;;;;4.03;2.05;;;17.30;53.20;;;;;;10446727;28;20037;-58
2022/03/09 10:15:16;;;;;;;6.40;2.28;;;17.30;53.20;;;;;;10444325;28;20029;-59
2022/03/09 10:20:23;;;;;;;5.72;2.25;;;17.30;53.00;;;;;;10442238;28;20025;-59
2022/03/09 10:25:23;;;;;;;5.38;2.08;;;17.30;52.90;;;;;;10460291;28;20095;-58
2022/03/09 10:30:31;;;;;;;3.60;1.95;;;17.30;52.80;;;;;;10459615;28;20035;-58
2022/03/09 10:35:32;;;;;;;6.25;1.95;;;17.30;52.70;;;;;;10457711;28;20045;-58
2022/03/09 10:40:43;;;;;;;8.63;2.08;;;17.30;52.70;;;;;;10458211;28;20048;-59
2022/03/09 10:46:08;;;;;;;4.38;2.03;;;17.30;52.60;;;;;;10445898;28;20028;-59
2022/03/09 10:51:09;;;;;;;3.47;1.90;;;17.40;52.70;;;;;;10447438;28;20060;-59
2022/03/09 10:56:19;;;;;;;4.55;2.40;;;17.40;52.70;;;;;;10465090;28;20111;-58
2022/03/09 11:01:21;;;;;;;3.75;2.00;;;17.40;52.70;;;;;;10449788;28;20414;-58
2022/03/09 11:06:21;;;;;;;3.92;2.10;;;17.40;52.60;;;;;;10443282;28;20040;-58
2022/03/09 11:11:23;;;;;;;5.00;2.00;;;17.40;52.60;;;;;;10456228;28;20092;-58
2022/03/09 11:16:24;;;;;;;5.85;1.77;;;17.50;52.50;;;;;;10455421;28;20448;-58
2022/03/09 11:21:24;;;;;;;4.40;1.83;;;17.50;52.40;;;;;;10444528;28;20036;-58
2022/03/09 11:26:28;;;;;;;6.40;2.20;;;17.60;52.70;;;;;;10457752;28;20040;-59
2022/03/09 11:31:43;;;;;;;5.43;2.05;;;17.60;52.90;;;;;;10455746;28;20028;-58
2022/03/09 11:36:58;;;;;;;4.85;2.38;;;17.60;53.10;;;;;;10450222;28;20033;-57
2022/03/09 11:42:20;;;;;;;5.80;2.30;;;17.60;53.20;;;;;;10453038;28;20186;-58
2022/03/09 11:47:21;;;;;;;6.18;1.80;;;17.70;53.40;;;;;;10455500;28;20511;-58
2022/03/09 11:52:26;;;;;;;11.02;3.00;;;17.70;53.60;;;;;;10455390;28;20032;-58
2022/03/09 11:57:48;;;;;;;8.95;2.92;;;17.70;53.50;;;;;;10455115;28;20402;-58
2022/03/09 12:02:54;;;;;;;10.48;2.50;;;17.70;54.10;;;;;;10455849;28;20040;-58
2022/03/09 12:08:12;;;;;;;11.02;3.22;;;17.80;54.30;;;;;;10456149;28;20405;-58
2022/03/09 12:13:56;;;;;;;15.15;2.85;;;17.70;54.40;;;;;;10442973;28;20025;-58
2022/03/09 12:18:57;;;;;;;6.00;2.40;;;17.80;54.10;;;;;;10452499;28;20052;-58
2022/03/09 12:24:00;;;;;;;13.77;3.53;;;17.80;53.90;;;;;;10455529;28;20029;-58
2022/03/09 12:29:01;;;;;;;7.68;2.97;;;17.80;53.70;;;;;;10453802;28;20033;-59
2022/03/09 12:34:02;;;;;;;7.53;2.65;;;17.80;53.70;;;;;;10435926;28;20120;-58
2022/03/09 12:39:05;;;;;;;8.27;2.60;;;17.70;53.70;;;;;;10458143;28;20146;-58
2022/03/09 12:44:12;;;;;;;10.88;3.00;;;17.80;53.60;;;;;;10440183;28;20098;-58
2022/03/09 12:49:18;;;;;;;12.20;2.60;;;17.80;53.40;;;;;;10448678;28;20116;-58
2022/03/09 12:54:34;;;;;;;10.63;3.22;;;17.80;53.30;;;;;;10451819;28;20028;-59
2022/03/09 12:59:35;;;;;;;8.70;3.80;;;17.80;53.30;;;;;;10461457;28;20032;-58
2022/03/09 13:04:36;;;;;;;7.82;3.15;;;17.80;53.50;;;;;;10442173;28;20032;-58
2022/03/09 13:09:36;;;;;;;4.82;2.65;;;17.80;53.60;;;;;;10451344;28;20382;-59
2022/03/09 13:14:41;;;;;;;7.05;3.05;;;17.80;53.60;;;;;;10451824;28;20036;-58
2022/03/09 13:19:42;;;;;;;4.50;2.38;;;17.80;53.70;;;;;;10443088;28;20028;-60
2022/03/09 13:24:43;;;;;;;9.60;3.25;;;17.90;53.70;;;;;;10441240;28;20040;-58
2022/03/09 13:29:47;;;;;;;7.53;3.00;;;17.90;53.70;;;;;;10444599;28;20057;-58
2022/03/09 13:34:54;;;;;;;4.93;3.25;;;17.80;53.40;;;;;;10455574;28;20045;-61
2022/03/09 13:39:59;;;;;;;8.95;3.50;;;17.80;53.40;;;;;;10450249;28;20397;-58
2022/03/09 13:45:25;;;;;;;8.93;3.92;;;17.80;53.00;;;;;;10455754;28;20430;-58
2022/03/09 13:50:34;;;;;;;8.18;4.63;;;17.80;52.90;;;;;;10459406;28;20033;-59
2022/03/09 13:55:48;;;;;;;9.17;4.47;;;17.80;52.90;;;;;;10464316;28;20401;-59
2022/03/09 14:00:50;;;;;;;8.93;3.72;;;17.80;53.00;;;;;;10452176;28;20378;-59
2022/03/09 14:05:54;;;;;;;5.25;3.47;;;17.70;53.00;;;;;;10438686;28;20036;-59
2022/03/09 14:11:08;;;;;;;9.43;3.80;;;17.80;53.10;;;;;;10454732;28;20040;-59
2022/03/09 14:16:10;;;;;;;7.72;3.63;;;17.70;53.20;;;;;;10456750;28;20025;-59
2022/03/09 14:21:10;;;;;;;6.32;3.85;;;17.80;53.20;;;;;;10460255;28;20473;-60
2022/03/09 14:26:11;;;;;;;9.65;4.80;;;17.80;53.30;;;;;;10460134;28;20118;-60
2022/03/09 14:31:12;;;;;;;10.02;5.35;;;17.80;52.50;;;;;;10458025;28;20595;-60
2022/03/09 14:36:14;;;;;;;11.15;6.72;;;17.80;51.60;;;;;;10453754;28;20110;-59
2022/03/09 14:41:15;;;;;;;10.68;6.82;;;17.80;51.00;;;;;;10453498;28;20029;-59
2022/03/09 14:46:16;;;;;;;10.82;6.32;;;17.80;50.50;;;;;;10440078;28;20140;-60
2022/03/09 14:51:19;;;;;;;13.20;7.88;;;17.80;50.40;;;;;;10441375;28;20041;-59
2022/03/09 14:56:21;;;;;;;12.93;7.45;;;17.80;50.50;;;;;;10464749;28;20039;-58
2022/03/09 15:01:21;;;;;;;18.58;8.07;;;17.80;50.60;;;;;;10457457;28;20029;-59
2022/03/09 15:06:22;;;;;;;17.05;8.32;;;17.80;51.00;;;;;;10454339;28;20078;-60
2022/03/09 15:11:23;;;;;;;21.20;9.07;;;17.90;51.20;;;;;;10456560;28;20047;-61
2022/03/09 15:16:23;;;;;;;15.55;8.50;;;17.90;51.90;;;;;;10440116;28;20114;-61
2022/03/09 15:21:24;;;;;;;17.23;9.35;;;18.00;57.10;;;;;;10430372;28;20033;-63
2022/03/09 15:26:25;;;;;;;19.08;8.75;;;18.20;58.60;;;;;;10445658;28;20108;-59
2022/03/09 15:31:25;;;;;;;22.63;9.63;;;18.30;59.80;;;;;;10447055;28;20062;-59
2022/03/09 15:36:26;;;;;;;18.10;9.27;;;18.40;59.50;;;;;;10455456;28;20379;-60
2022/03/09 15:41:27;;;;;;;14.98;8.98;;;18.60;57.70;;;;;;10449008;28;20032;-60
2022/03/09 15:46:30;;;;;;;16.50;8.82;;;18.20;54.10;;;;;;10450186;28;20123;-59
2022/03/09 15:51:31;;;;;;;14.98;8.75;;;18.00;54.70;;;;;;10456015;28;20032;-59
2022/03/09 15:56:32;;;;;;;21.05;9.55;;;17.80;54.80;;;;;;10462338;28;20024;-58
2022/03/09 16:01:32;;;;;;;24.80;10.93;;;17.70;55.10;;;;;;10453959;28;20055;-58
2022/03/09 16:06:33;;;;;;;18.95;10.00;;;17.70;55.10;;;;;;10456285;28;20035;-58
2022/03/09 16:11:34;;;;;;;19.73;9.70;;;17.60;55.50;;;;;;10452687;28;20052;-58
2022/03/09 16:16:35;;;;;;;16.70;8.55;;;17.60;55.70;;;;;;10453063;28;20040;-58
2022/03/09 16:21:36;;;;;;;15.63;8.48;;;17.60;56.10;;;;;;10452316;28;20050;-58
2022/03/09 16:26:37;;;;;;;14.82;8.88;;;17.50;56.10;;;;;;10444855;28;20067;-60
2022/03/09 16:31:37;;;;;;;15.52;8.23;;;17.50;56.00;;;;;;10445971;28;20131;-60
2022/03/09 16:36:38;;;;;;;17.02;8.30;;;17.40;56.00;;;;;;10453490;28;20075;-59
2022/03/09 16:41:39;;;;;;;13.88;8.07;;;17.40;56.20;;;;;;10454749;28;20037;-61
2022/03/09 16:46:40;;;;;;;16.70;7.65;;;17.40;56.40;;;;;;10440313;28;20136;-60
2022/03/09 16:51:41;;;;;;;10.10;6.32;;;17.30;56.50;;;;;;10453277;28;20033;-60
2022/03/09 16:56:42;;;;;;;14.45;7.88;;;17.30;56.60;;;;;;10452543;28;20033;-60
2022/03/09 17:01:43;;;;;;;11.50;7.22;;;17.20;56.60;;;;;;10435547;28;20040;-60
2022/03/09 17:06:44;;;;;;;10.13;6.78;;;17.20;56.60;;;;;;10438487;28;20052;-61
2022/03/09 17:11:45;;;;;;;13.07;7.00;;;17.20;57.10;;;;;;10441042;28;20576;-58
2022/03/09 17:16:46;;;;;;;17.80;6.63;;;17.10;56.40;;;;;;10441808;28;20111;-59
2022/03/09 17:21:48;;;;;;;17.45;6.93;;;17.20;56.50;;;;;;10450511;28;20529;-59
2022/03/09 17:26:48;;;;;;;15.65;8.40;;;17.10;57.40;;;;;;10425616;28;20485;-60
2022/03/09 17:31:49;;;;;;;23.90;8.02;;;17.20;57.10;;;;;;10442857;28;20044;-60
2022/03/09 17:36:50;;;;;;;20.77;6.80;;;17.40;61.50;;;;;;10451801;28;20060;-60
2022/03/09 17:41:50;;;;;;;25.77;7.32;;;17.50;61.10;;;;;;10435552;28;20076;-59
2022/03/09 17:46:51;;;;;;;24.02;7.40;;;17.50;60.70;;;;;;10452283;28;20120;-59
2022/03/09 17:51:52;;;;;;;21.50;7.25;;;17.50;60.60;;;;;;10452404;28;20417;-59
2022/03/09 17:56:54;;;;;;;28.02;7.75;;;17.40;60.50;;;;;;10451926;28;20445;-60
2022/03/09 18:01:55;;;;;;;15.57;5.95;;;17.30;59.40;;;;;;10431391;28;20022;-60
2022/03/09 18:06:56;;;;;;;26.38;7.95;;;17.20;59.90;;;;;;10473387;28;20530;-60
2022/03/09 18:12:00;;;;;;;33.40;7.38;;;17.30;59.90;;;;;;10459416;28;20105;-60
2022/03/09 18:17:01;;;;;;;21.25;6.45;;;17.30;59.60;;;;;;10450731;28;20099;-60
2022/03/09 18:22:03;;;;;;;15.65;7.40;;;17.20;59.50;;;;;;10451436;28;20035;-60
2022/03/09 18:27:09;;;;;;;17.38;6.30;;;17.10;59.00;;;;;;10457586;28;20025;-59
2022/03/09 18:32:10;;;;;;;11.48;5.82;;;17.10;59.00;;;;;;10456644;28;20075;-61
2022/03/09 18:37:14;;;;;;;14.02;6.05;;;17.10;59.50;;;;;;10449690;28;20087;-60
2022/03/09 18:42:14;;;;;;;18.95;7.22;;;17.10;59.90;;;;;;10440508;28;20087;-60
2022/03/09 18:47:16;;;;;;;17.48;6.82;;;17.10;60.00;;;;;;10430878;28;20021;-60
2022/03/09 18:52:17;;;;;;;16.00;6.20;;;17.10;59.40;;;;;;10425766;28;20057;-60
2022/03/09 18:57:18;;;;;;;16.38;6.50;;;17.10;59.20;;;;;;10461212;28;20033;-60
2022/03/09 19:02:18;;;;;;;12.00;5.25;;;17.20;59.40;;;;;;10450130;28;20152;-61
2022/03/09 19:07:19;;;;;;;12.27;5.95;;;17.10;59.40;;;;;;10437960;28;20469;-60
2022/03/09 19:12:19;;;;;;;12.15;5.70;;;17.10;59.30;;;;;;10456528;28;20062;-61
2022/03/09 19:17:20;;;;;;;14.30;6.07;;;17.10;59.20;;;;;;10456688;28;20068;-60
2022/03/09 19:22:21;;;;;;;9.35;5.30;;;17.10;59.30;;;;;;10455808;28;20374;-60
2022/03/09 19:27:22;;;;;;;11.43;5.88;;;17.10;59.30;;;;;;10456851;28;20100;-61
2022/03/09 19:32:23;;;;;;;11.13;6.40;;;17.10;60.20;;;;;;10436956;28;20106;-61
2022/03/09 19:37:23;;;;;;;10.35;5.45;;;17.10;59.40;;;;;;10443121;28;20044;-61
2022/03/09 19:42:24;;;;;;;11.90;5.82;;;17.10;59.40;;;;;;10434986;28;20021;-61
2022/03/09 19:47:25;;;;;;;9.43;6.25;;;17.10;59.40;;;;;;10431297;28;20155;-62
2022/03/09 19:52:26;;;;;;;8.40;5.25;;;17.10;59.60;;;;;;10450159;28;20112;-61
2022/03/09 19:57:26;;;;;;;8.70;5.05;;;17.10;59.60;;;;;;10450395;28;20052;-61
2022/03/09 20:02:27;;;;;;;11.02;6.05;;;17.10;59.40;;;;;;10420421;28;20033;-61
2022/03/09 20:07:28;;;;;;;9.95;6.30;;;17.00;59.50;;;;;;10424305;28;20100;-61
2022/03/09 20:12:29;;;;;;;15.60;6.00;;;17.10;59.50;;;;;;10453568;28;20056;-61
2022/03/09 20:17:30;;;;;;;9.60;6.07;;;17.10;59.60;;;;;;10435079;28;20445;-61
2022/03/09 20:22:31;;;;;;;7.25;5.15;;;17.10;59.80;;;;;;10452561;28;20056;-60
2022/03/09 20:27:31;;;;;;;14.45;5.63;;;17.00;59.80;;;;;;10450687;28;20033;-61
2022/03/09 20:32:33;;;;;;;6.28;5.07;;;17.00;59.40;;;;;;10446423;28;20061;-61
2022/03/09 20:37:34;;;;;;;9.23;5.95;;;16.90;59.40;;;;;;10453329;28;20063;-61
2022/03/09 20:42:34;;;;;;;9.43;5.32;;;16.90;59.10;;;;;;10443182;28;20116;-61
2022/03/09 20:47:35;;;;;;;9.48;5.65;;;16.90;59.00;;;;;;10453488;28;20143;-61
2022/03/09 20:52:36;;;;;;;9.82;5.75;;;16.80;58.70;;;;;;10439951;28;20040;-61
2022/03/09 20:57:37;;;;;;;8.15;5.65;;;16.80;58.60;;;;;;10459394;28;20040;-61
2022/03/09 21:02:43;;;;;;;9.05;5.20;;;16.80;58.60;;;;;;10454449;28;20361;-61
2022/03/09 21:07:43;;;;;;;8.18;4.85;;;16.80;58.50;;;;;;10425285;28;20041;-61
2022/03/09 21:12:44;;;;;;;8.63;5.40;;;16.80;58.40;;;;;;10453002;28;20450;-61
2022/03/09 21:17:45;;;;;;;8.07;4.78;;;16.70;58.20;;;;;;10451675;28;20033;-61
2022/03/09 21:22:46;;;;;;;9.25;4.35;;;16.70;58.20;;;;;;10454113;28;20062;-60
2022/03/09 21:27:46;;;;;;;8.02;5.15;;;16.70;58.20;;;;;;10454046;28;20056;-61
2022/03/09 21:32:48;;;;;;;8.35;4.78;;;16.70;58.10;;;;;;10445228;28;20049;-61
2022/03/09 21:37:49;;;;;;;11.15;5.82;;;16.70;57.90;;;;;;10451566;28;20037;-61
2022/03/09 21:42:50;;;;;;;7.95;5.35;;;16.80;57.70;;;;;;10461568;28;20107;-62
2022/03/09 21:47:50;;;;;;;7.68;5.25;;;16.80;57.60;;;;;;10452979;28;20114;-61
2022/03/09 21:52:51;;;;;;;5.72;4.70;;;16.70;57.60;;;;;;10453392;28;20116;-61
2022/03/09 21:57:52;;;;;;;6.97;5.25;;;16.70;57.30;;;;;;10469136;28;20120;-61
2022/03/09 22:02:52;;;;;;;8.63;5.22;;;16.70;57.10;;;;;;10449697;28;20075;-62
2022/03/09 22:07:53;;;;;;;8.75;5.60;;;16.70;57.10;;;;;;10460796;28;20067;-61
2022/03/09 22:12:54;;;;;;;6.85;5.28;;;16.80;57.00;;;;;;10457613;28;20065;-61
2022/03/09 22:17:54;;;;;;;5.97;5.00;;;16.80;56.60;;;;;;10458098;28;20029;-61
2022/03/09 22:22:55;;;;;;;7.60;4.85;;;16.80;56.40;;;;;;10446740;28;20074;-61
2022/03/09 22:27:56;;;;;;;5.47;4.63;;;16.80;56.30;;;;;;10460218;28;20072;-61
2022/03/09 22:32:56;;;;;;;6.55;4.60;;;16.90;56.20;;;;;;10441550;28;20044;-62
2022/03/09 22:37:57;;;;;;;6.63;4.72;;;16.90;56.10;;;;;;10448415;28;20069;-61
2022/03/09 22:42:58;;;;;;;7.57;5.03;;;16.90;56.10;;;;;;10458452;28;20057;-61
2022/03/09 22:47:59;;;;;;;8.85;5.38;;;16.80;55.90;;;;;;10458055;28;20032;-61
2022/03/09 22:53:04;;;;;;;5.85;4.70;;;16.80;55.80;;;;;;10450977;28;20547;-61
2022/03/09 22:58:05;;;;;;;6.28;4.47;;;16.90;55.80;;;;;;10449008;28;20029;-61
2022/03/09 23:03:11;;;;;;;6.47;4.55;;;16.80;55.60;;;;;;10454617;28;20021;-62
2022/03/09 23:08:15;;;;;;;6.95;4.63;;;16.80;56.20;;;;;;10455967;28;20037;-61
2022/03/09 23:13:16;;;;;;;7.00;5.00;;;16.80;55.50;;;;;;10440871;28;20365;-60
2022/03/09 23:18:17;;;;;;;6.35;4.57;;;16.80;55.40;;;;;;10445292;28;20040;-61
2022/03/09 23:23:17;;;;;;;5.90;4.57;;;16.80;55.30;;;;;;10457922;28;20108;-61
2022/03/09 23:28:18;;;;;;;4.95;4.30;;;16.80;55.30;;;;;;10448936;28;20025;-61
2022/03/09 23:33:19;;;;;;;8.02;5.15;;;16.80;55.20;;;;;;10453352;28;20144;-62
2022/03/09 23:38:20;;;;;;;5.88;4.50;;;16.90;55.10;;;;;;10456225;28;20064;-61
2022/03/09 23:43:21;;;;;;;6.07;5.20;;;17.00;54.90;;;;;;10451151;28;20025;-61
2022/03/09 23:48:22;;;;;;;6.10;4.90;;;16.90;54.80;;;;;;10452111;28;20029;-61
2022/03/09 23:53:23;;;;;;;5.80;4.75;;;16.90;54.80;;;;;;10455739;28;20079;-61
2022/03/09 23:58:23;;;;;;;7.50;4.85;;;16.80;54.90;;;;;;10463834;28;20141;-61
